sensor_id;sensor_type;location;lat;lon;timestamp;temperature;humidity
32334;DHT22;18810;53.040;8.850;2022-08-16T00:02:16;19.90;99.90
32334;DHT22;18810;53.040;8.850;2022-08-16T00:04:42;20.00;99.90
32334;DHT22;18810;53.040;8.850;2022-08-16T00:07:08;20.00;99.90
32334;DHT22;18810;53.040;8.850;2022-08-16T00:09:33;20.00;99.90
32334;DHT22;18810;53.040;8.850;2022-08-16T00:11:59;20.10;99.90
32334;DHT22;18810;53.040;8.850;2022-08-16T00:14:28;20.10;99.90
32334;DHT22;18810;53.040;8.850;2022-08-16T00:16:54;20.20;99.90
32334;DHT22;18810;53.040;8.850;2022-08-16T00:19:24;20.10;99.90
32334;DHT22;18810;53.040;8.850;2022-08-16T00:21:51;20.10;99.90
32334;DHT22;18810;53.040;8.850;2022-08-16T00:24:17;20.10;99.90
32334;DHT22;18810;53.040;8.850;2022-08-16T00:26:43;20.20;99.90
32334;DHT22;18810;53.040;8.850;2022-08-16T00:29:11;20.20;99.90
32334;DHT22;18810;53.040;8.850;2022-08-16T00:31:37;20.20;99.90
32334;DHT22;18810;53.040;8.850;2022-08-16T00:34:03;20.10;99.90
32334;DHT22;18810;53.040;8.850;2022-08-16T00:38:54;20.10;99.90
32334;DHT22;18810;53.040;8.850;2022-08-16T00:41:20;20.10;99.90
32334;DHT22;18810;53.040;8.850;2022-08-16T00:43:46;20.20;99.90
32334;DHT22;18810;53.040;8.850;2022-08-16T00:46:26;20.30;99.90
32334;DHT22;18810;53.040;8.850;2022-08-16T00:48:53;20.00;99.90
32334;DHT22;18810;53.040;8.850;2022-08-16T00:51:21;20.20;99.90
32334;DHT22;18810;53.040;8.850;2022-08-16T00:53:49;20.20;99.90
32334;DHT22;18810;53.040;8.850;2022-08-16T00:56:21;20.20;99.90
32334;DHT22;18810;53.040;8.850;2022-08-16T00:58:48;20.00;99.90
32334;DHT22;18810;53.040;8.850;2022-08-16T01:01:15;20.10;99.90
32334;DHT22;18810;53.040;8.850;2022-08-16T01:03:43;20.10;99.90
32334;DHT22;18810;53.040;8.850;2022-08-16T01:06:10;20.10;99.90
32334;DHT22;18810;53.040;8.850;2022-08-16T01:08:37;20.10;99.90
32334;DHT22;18810;53.040;8.850;2022-08-16T01:11:05;22.90;99.90
32334;DHT22;18810;53.040;8.850;2022-08-16T01:13:34;20.00;99.90
32334;DHT22;18810;53.040;8.850;2022-08-16T01:16:07;20.10;99.90
32334;DHT22;18810;53.040;8.850;2022-08-16T01:18:52;20.10;99.90
32334;DHT22;18810;53.040;8.850;2022-08-16T01:24:50;19.90;99.90
32334;DHT22;18810;53.040;8.850;2022-08-16T01:32:10;19.90;99.90
32334;DHT22;18810;53.040;8.850;2022-08-16T01:34:35;20.30;99.90
32334;DHT22;18810;53.040;8.850;2022-08-16T01:37:07;20.10;99.90
32334;DHT22;18810;53.040;8.850;2022-08-16T01:39:35;20.00;99.90
32334;DHT22;18810;53.040;8.850;2022-08-16T01:42:02;20.20;99.90
32334;DHT22;18810;53.040;8.850;2022-08-16T01:44:29;20.30;99.90
32334;DHT22;18810;53.040;8.850;2022-08-16T01:46:55;20.30;99.90
32334;DHT22;18810;53.040;8.850;2022-08-16T01:49:36;20.50;99.90
32334;DHT22;18810;53.040;8.850;2022-08-16T01:52:08;20.40;99.90
32334;DHT22;18810;53.040;8.850;2022-08-16T01:57:01;20.30;99.90
32334;DHT22;18810;53.040;8.850;2022-08-16T01:59:29;20.40;99.90
32334;DHT22;18810;53.040;8.850;2022-08-16T02:04:22;20.30;99.90
32334;DHT22;18810;53.040;8.850;2022-08-16T02:06:48;20.50;99.90
32334;DHT22;18810;53.040;8.850;2022-08-16T02:09:14;20.30;99.90
32334;DHT22;18810;53.040;8.850;2022-08-16T02:11:43;20.10;99.90
32334;DHT22;18810;53.040;8.850;2022-08-16T02:19:02;20.30;99.90
32334;DHT22;18810;53.040;8.850;2022-08-16T02:21:28;20.40;99.90
32334;DHT22;18810;53.040;8.850;2022-08-16T02:23:54;20.40;99.90
32334;DHT22;18810;53.040;8.850;2022-08-16T02:28:46;20.50;99.90
32334;DHT22;18810;53.040;8.850;2022-08-16T02:31:13;20.30;99.90
32334;DHT22;18810;53.040;8.850;2022-08-16T02:33:40;20.30;99.90
32334;DHT22;18810;53.040;8.850;2022-08-16T02:36:07;20.10;99.90
32334;DHT22;18810;53.040;8.850;2022-08-16T02:38:33;20.30;99.90
32334;DHT22;18810;53.040;8.850;2022-08-16T02:41:00;20.30;99.90
32334;DHT22;18810;53.040;8.850;2022-08-16T02:43:30;20.40;99.90
32334;DHT22;18810;53.040;8.850;2022-08-16T02:45:56;20.30;99.90
32334;DHT22;18810;53.040;8.850;2022-08-16T02:48:23;20.00;99.90
32334;DHT22;18810;53.040;8.850;2022-08-16T02:50:49;20.30;99.90
32334;DHT22;18810;53.040;8.850;2022-08-16T02:53:15;20.20;99.90
32334;DHT22;18810;53.040;8.850;2022-08-16T02:55:40;20.40;99.90
32334;DHT22;18810;53.040;8.850;2022-08-16T03:02:58;20.30;99.90
32334;DHT22;18810;53.040;8.850;2022-08-16T03:05:24;20.40;99.90
32334;DHT22;18810;53.040;8.850;2022-08-16T03:07:50;20.40;99.90
32334;DHT22;18810;53.040;8.850;2022-08-16T03:10:16;20.00;99.90
32334;DHT22;18810;53.040;8.850;2022-08-16T03:15:11;20.30;99.90
32334;DHT22;18810;53.040;8.850;2022-08-16T03:17:37;20.10;99.90
32334;DHT22;18810;53.040;8.850;2022-08-16T03:20:04;19.90;99.90
32334;DHT22;18810;53.040;8.850;2022-08-16T03:24:59;20.10;99.90
32334;DHT22;18810;53.040;8.850;2022-08-16T03:27:25;20.00;99.90
32334;DHT22;18810;53.040;8.850;2022-08-16T03:29:52;20.20;99.90
32334;DHT22;18810;53.040;8.850;2022-08-16T03:32:17;19.90;99.90
32334;DHT22;18810;53.040;8.850;2022-08-16T03:37:11;20.00;99.90
32334;DHT22;18810;53.040;8.850;2022-08-16T03:44:30;19.80;99.90
32334;DHT22;18810;53.040;8.850;2022-08-16T03:46:57;19.70;99.90
32334;DHT22;18810;53.040;8.850;2022-08-16T03:49:22;19.80;99.90
32334;DHT22;18810;53.040;8.850;2022-08-16T03:51:48;19.80;99.90
32334;DHT22;18810;53.040;8.850;2022-08-16T03:56:41;20.20;99.90
32334;DHT22;18810;53.040;8.850;2022-08-16T03:59:06;19.80;99.90
32334;DHT22;18810;53.040;8.850;2022-08-16T04:01:32;20.00;99.90
32334;DHT22;18810;53.040;8.850;2022-08-16T04:03:58;19.60;99.90
32334;DHT22;18810;53.040;8.850;2022-08-16T04:11:17;19.60;99.90
32334;DHT22;18810;53.040;8.850;2022-08-16T04:13:43;19.40;99.90
32334;DHT22;18810;53.040;8.850;2022-08-16T04:16:09;19.50;99.90
32334;DHT22;18810;53.040;8.850;2022-08-16T04:21:03;19.70;99.90
32334;DHT22;18810;53.040;8.850;2022-08-16T04:23:29;19.50;99.90
32334;DHT22;18810;53.040;8.850;2022-08-16T04:25:55;19.70;99.90
32334;DHT22;18810;53.040;8.850;2022-08-16T04:28:21;19.50;99.90
32334;DHT22;18810;53.040;8.850;2022-08-16T04:33:13;19.80;99.90
32334;DHT22;18810;53.040;8.850;2022-08-16T04:40:31;20.10;99.90
32334;DHT22;18810;53.040;8.850;2022-08-16T04:50:22;19.90;99.90
32334;DHT22;18810;53.040;8.850;2022-08-16T04:52:50;19.70;99.90
32334;DHT22;18810;53.040;8.850;2022-08-16T04:55:21;20.00;99.90
32334;DHT22;18810;53.040;8.850;2022-08-16T04:57:49;20.00;99.90
32334;DHT22;18810;53.040;8.850;2022-08-16T05:00:18;19.90;99.90
32334;DHT22;18810;53.040;8.850;2022-08-16T05:02:45;20.00;99.90
32334;DHT22;18810;53.040;8.850;2022-08-16T05:05:12;20.30;99.90
32334;DHT22;18810;53.040;8.850;2022-08-16T05:07:39;20.00;99.90
32334;DHT22;18810;53.040;8.850;2022-08-16T05:12:32;20.20;99.90
32334;DHT22;18810;53.040;8.850;2022-08-16T05:17:24;20.30;99.90
32334;DHT22;18810;53.040;8.850;2022-08-16T05:24:42;20.70;99.90
32334;DHT22;18810;53.040;8.850;2022-08-16T05:34:27;20.30;99.90
32334;DHT22;18810;53.040;8.850;2022-08-16T05:36:53;20.60;99.90
32334;DHT22;18810;53.040;8.850;2022-08-16T05:39:22;20.60;99.90
32334;DHT22;18810;53.040;8.850;2022-08-16T05:41:49;20.60;99.90
32334;DHT22;18810;53.040;8.850;2022-08-16T05:44:15;20.60;99.90
32334;DHT22;18810;53.040;8.850;2022-08-16T05:46:41;20.80;99.90
32334;DHT22;18810;53.040;8.850;2022-08-16T05:49:09;20.90;99.90
32334;DHT22;18810;53.040;8.850;2022-08-16T05:54:03;21.10;99.90
32334;DHT22;18810;53.040;8.850;2022-08-16T05:58:55;21.50;99.90
32334;DHT22;18810;53.040;8.850;2022-08-16T06:03:46;21.60;99.90
32334;DHT22;18810;53.040;8.850;2022-08-16T06:06:12;21.60;99.90
32334;DHT22;18810;53.040;8.850;2022-08-16T06:08:38;21.90;99.90
32334;DHT22;18810;53.040;8.850;2022-08-16T06:11:04;22.00;99.90
32334;DHT22;18810;53.040;8.850;2022-08-16T06:15:55;22.10;99.90
32334;DHT22;18810;53.040;8.850;2022-08-16T06:23:13;23.80;99.90
32334;DHT22;18810;53.040;8.850;2022-08-16T06:25:40;23.90;99.90
32334;DHT22;18810;53.040;8.850;2022-08-16T06:28:08;24.20;99.90
32334;DHT22;18810;53.040;8.850;2022-08-16T06:30:34;24.20;99.90
32334;DHT22;18810;53.040;8.850;2022-08-16T06:33:01;24.40;99.90
32334;DHT22;18810;53.040;8.850;2022-08-16T06:35:28;24.20;99.90
32334;DHT22;18810;53.040;8.850;2022-08-16T06:42:45;23.80;99.90
32334;DHT22;18810;53.040;8.850;2022-08-16T06:47:37;23.90;99.90
32334;DHT22;18810;53.040;8.850;2022-08-16T06:50:03;24.10;99.90
32334;DHT22;18810;53.040;8.850;2022-08-16T06:52:29;24.50;99.90
32334;DHT22;18810;53.040;8.850;2022-08-16T06:54:57;25.20;99.90
32334;DHT22;18810;53.040;8.850;2022-08-16T06:57:22;25.30;99.90
32334;DHT22;18810;53.040;8.850;2022-08-16T06:59:48;25.70;99.90
32334;DHT22;18810;53.040;8.850;2022-08-16T07:04:41;25.50;99.90
32334;DHT22;18810;53.040;8.850;2022-08-16T07:09:33;25.40;99.90
32334;DHT22;18810;53.040;8.850;2022-08-16T07:21:43;25.60;99.90
32334;DHT22;18810;53.040;8.850;2022-08-16T07:38:46;25.20;99.90
32334;DHT22;18810;53.040;8.850;2022-08-16T07:46:05;25.20;99.90
32334;DHT22;18810;53.040;8.850;2022-08-16T07:53:23;25.40;99.90
32334;DHT22;18810;53.040;8.850;2022-08-16T08:00:41;26.00;99.90
32334;DHT22;18810;53.040;8.850;2022-08-16T08:12:52;25.90;99.90
32334;DHT22;18810;53.040;8.850;2022-08-16T08:15:19;26.20;99.90
32334;DHT22;18810;53.040;8.850;2022-08-16T08:17:45;26.60;99.90
32334;DHT22;18810;53.040;8.850;2022-08-16T08:20:15;26.80;99.90
32334;DHT22;18810;53.040;8.850;2022-08-16T08:22:42;27.00;99.90
32334;DHT22;18810;53.040;8.850;2022-08-16T08:30:04;27.10;99.90
32334;DHT22;18810;53.040;8.850;2022-08-16T08:35:55;27.10;99.90
32334;DHT22;18810;53.040;8.850;2022-08-16T08:40:47;27.40;99.90
32334;DHT22;18810;53.040;8.850;2022-08-16T08:43:13;26.90;99.90
32334;DHT22;18810;53.040;8.850;2022-08-16T08:45:40;26.80;99.90
32334;DHT22;18810;53.040;8.850;2022-08-16T09:00:21;26.80;99.90
32334;DHT22;18810;53.040;8.850;2022-08-16T09:02:48;26.90;99.90
32334;DHT22;18810;53.040;8.850;2022-08-16T09:05:14;26.70;99.90
32334;DHT22;18810;53.040;8.850;2022-08-16T09:07:40;26.90;99.90
32334;DHT22;18810;53.040;8.850;2022-08-16T09:12:34;27.10;99.90
32334;DHT22;18810;53.040;8.850;2022-08-16T09:22:21;26.80;99.90
32334;DHT22;18810;53.040;8.850;2022-08-16T09:24:48;26.90;99.90
32334;DHT22;18810;53.040;8.850;2022-08-16T09:29:41;27.50;99.90
32334;DHT22;18810;53.040;8.850;2022-08-16T09:32:20;27.60;99.90
32334;DHT22;18810;53.040;8.850;2022-08-16T09:34:46;27.60;99.90
32334;DHT22;18810;53.040;8.850;2022-08-16T09:42:06;27.40;99.90
32334;DHT22;18810;53.040;8.850;2022-08-16T09:54:21;27.50;99.90
32334;DHT22;18810;53.040;8.850;2022-08-16T10:04:07;28.20;99.40
32334;DHT22;18810;53.040;8.850;2022-08-16T10:06:33;28.30;99.90
32334;DHT22;18810;53.040;8.850;2022-08-16T10:14:10;28.90;97.10
32334;DHT22;18810;53.040;8.850;2022-08-16T10:16:35;29.00;97.50
32334;DHT22;18810;53.040;8.850;2022-08-16T10:19:01;29.60;96.30
32334;DHT22;18810;53.040;8.850;2022-08-16T10:21:37;30.40;94.60
32334;DHT22;18810;53.040;8.850;2022-08-16T10:24:03;30.30;94.80
32334;DHT22;18810;53.040;8.850;2022-08-16T10:41:06;30.60;92.70
32334;DHT22;18810;53.040;8.850;2022-08-16T10:43:37;30.60;92.40
32334;DHT22;18810;53.040;8.850;2022-08-16T10:46:04;30.60;92.70
32334;DHT22;18810;53.040;8.850;2022-08-16T10:48:30;30.90;92.00
32334;DHT22;18810;53.040;8.850;2022-08-16T10:50:57;30.70;91.30
32334;DHT22;18810;53.040;8.850;2022-08-16T10:53:24;30.50;91.80
32334;DHT22;18810;53.040;8.850;2022-08-16T11:05:36;31.00;89.10
32334;DHT22;18810;53.040;8.850;2022-08-16T11:08:04;31.50;86.00
32334;DHT22;18810;53.040;8.850;2022-08-16T11:10:42;31.70;85.80
32334;DHT22;18810;53.040;8.850;2022-08-16T11:13:10;31.40;86.00
32334;DHT22;18810;53.040;8.850;2022-08-16T11:15:37;31.10;85.50
32334;DHT22;18810;53.040;8.850;2022-08-16T11:18:05;31.40;86.50
32334;DHT22;18810;53.040;8.850;2022-08-16T11:25:26;31.90;82.60
32334;DHT22;18810;53.040;8.850;2022-08-16T11:27:54;32.40;82.20
32334;DHT22;18810;53.040;8.850;2022-08-16T11:35:15;32.30;81.60
32334;DHT22;18810;53.040;8.850;2022-08-16T11:37:54;32.40;80.50
32334;DHT22;18810;53.040;8.850;2022-08-16T11:40:22;33.10;77.80
32334;DHT22;18810;53.040;8.850;2022-08-16T11:45:14;33.20;78.50
32334;DHT22;18810;53.040;8.850;2022-08-16T11:50:07;32.60;75.70
32334;DHT22;18810;53.040;8.850;2022-08-16T11:52:34;32.70;75.30
32334;DHT22;18810;53.040;8.850;2022-08-16T11:55:01;32.50;75.30
32334;DHT22;18810;53.040;8.850;2022-08-16T12:04:45;32.80;73.30
32334;DHT22;18810;53.040;8.850;2022-08-16T12:09:37;33.20;70.60
32334;DHT22;18810;53.040;8.850;2022-08-16T12:12:04;32.60;73.60
32334;DHT22;18810;53.040;8.850;2022-08-16T12:14:31;32.40;75.50
32334;DHT22;18810;53.040;8.850;2022-08-16T12:16:58;32.00;73.50
32334;DHT22;18810;53.040;8.850;2022-08-16T12:34:02;33.90;69.80
32334;DHT22;18810;53.040;8.850;2022-08-16T12:41:20;33.80;66.80
32334;DHT22;18810;53.040;8.850;2022-08-16T12:51:27;33.70;68.20
32334;DHT22;18810;53.040;8.850;2022-08-16T12:53:54;33.50;70.10
32334;DHT22;18810;53.040;8.850;2022-08-16T12:56:25;34.00;70.80
32334;DHT22;18810;53.040;8.850;2022-08-16T13:01:19;34.60;67.60
32334;DHT22;18810;53.040;8.850;2022-08-16T13:06:14;34.50;67.70
32334;DHT22;18810;53.040;8.850;2022-08-16T13:08:40;34.80;66.60
32334;DHT22;18810;53.040;8.850;2022-08-16T13:16:03;34.90;67.40
32334;DHT22;18810;53.040;8.850;2022-08-16T13:18:29;35.10;67.40
32334;DHT22;18810;53.040;8.850;2022-08-16T13:23:35;34.60;69.10
32334;DHT22;18810;53.040;8.850;2022-08-16T13:26:01;34.00;70.40
32334;DHT22;18810;53.040;8.850;2022-08-16T13:28:27;33.40;73.00
32334;DHT22;18810;53.040;8.850;2022-08-16T13:30:55;32.40;72.80
32334;DHT22;18810;53.040;8.850;2022-08-16T13:33:28;32.40;73.50
32334;DHT22;18810;53.040;8.850;2022-08-16T13:35:56;32.10;74.60
32334;DHT22;18810;53.040;8.850;2022-08-16T13:38:22;32.00;75.20
32334;DHT22;18810;53.040;8.850;2022-08-16T13:45:41;33.30;74.10
32334;DHT22;18810;53.040;8.850;2022-08-16T13:50:34;33.70;72.50
32334;DHT22;18810;53.040;8.850;2022-08-16T13:53:00;33.10;73.70
32334;DHT22;18810;53.040;8.850;2022-08-16T13:55:26;32.40;74.60
32334;DHT22;18810;53.040;8.850;2022-08-16T14:00:19;32.80;75.00
32334;DHT22;18810;53.040;8.850;2022-08-16T14:10:05;34.20;68.20
32334;DHT22;18810;53.040;8.850;2022-08-16T14:14:57;34.40;66.60
32334;DHT22;18810;53.040;8.850;2022-08-16T14:17:24;35.60;67.00
32334;DHT22;18810;53.040;8.850;2022-08-16T14:19:51;36.30;64.80
32334;DHT22;18810;53.040;8.850;2022-08-16T14:22:25;36.30;65.60
32334;DHT22;18810;53.040;8.850;2022-08-16T14:24:53;36.50;65.70
32334;DHT22;18810;53.040;8.850;2022-08-16T14:27:21;36.30;63.60
32334;DHT22;18810;53.040;8.850;2022-08-16T14:29:49;35.90;64.80
32334;DHT22;18810;53.040;8.850;2022-08-16T14:32:18;35.20;65.80
32334;DHT22;18810;53.040;8.850;2022-08-16T14:34:44;35.20;66.50
32334;DHT22;18810;53.040;8.850;2022-08-16T14:37:09;33.80;67.60
32334;DHT22;18810;53.040;8.850;2022-08-16T14:39:35;33.70;68.10
32334;DHT22;18810;53.040;8.850;2022-08-16T14:42:06;32.90;71.20
32334;DHT22;18810;53.040;8.850;2022-08-16T14:44:32;32.90;72.00
32334;DHT22;18810;53.040;8.850;2022-08-16T14:46:58;32.60;72.00
32334;DHT22;18810;53.040;8.850;2022-08-16T14:51:50;31.90;74.00
32334;DHT22;18810;53.040;8.850;2022-08-16T14:54:16;31.80;74.70
32334;DHT22;18810;53.040;8.850;2022-08-16T14:56:42;31.30;75.10
32334;DHT22;18810;53.040;8.850;2022-08-16T14:59:08;31.30;75.70
32334;DHT22;18810;53.040;8.850;2022-08-16T15:01:33;31.50;76.30
32334;DHT22;18810;53.040;8.850;2022-08-16T15:03:59;31.50;76.70
32334;DHT22;18810;53.040;8.850;2022-08-16T15:08:51;31.50;76.00
32334;DHT22;18810;53.040;8.850;2022-08-16T15:11:16;31.70;76.20
32334;DHT22;18810;53.040;8.850;2022-08-16T15:13:42;31.80;76.90
32334;DHT22;18810;53.040;8.850;2022-08-16T15:16:08;32.10;77.70
32334;DHT22;18810;53.040;8.850;2022-08-16T15:18:33;32.30;77.50
32334;DHT22;18810;53.040;8.850;2022-08-16T15:21:01;32.30;76.60
32334;DHT22;18810;53.040;8.850;2022-08-16T15:25:56;31.80;76.30
32334;DHT22;18810;53.040;8.850;2022-08-16T15:28:23;31.70;77.90
32334;DHT22;18810;53.040;8.850;2022-08-16T15:30:49;31.70;78.00
32334;DHT22;18810;53.040;8.850;2022-08-16T15:33:19;31.80;77.90
32334;DHT22;18810;53.040;8.850;2022-08-16T15:35:46;32.90;74.50
32334;DHT22;18810;53.040;8.850;2022-08-16T15:38:14;32.80;75.20
32334;DHT22;18810;53.040;8.850;2022-08-16T15:40:40;32.90;74.20
32334;DHT22;18810;53.040;8.850;2022-08-16T15:43:07;32.60;74.80
32334;DHT22;18810;53.040;8.850;2022-08-16T15:45:35;32.50;75.40
32334;DHT22;18810;53.040;8.850;2022-08-16T15:48:19;32.40;76.00
32334;DHT22;18810;53.040;8.850;2022-08-16T15:50:47;32.80;75.70
32334;DHT22;18810;53.040;8.850;2022-08-16T15:53:18;33.20;74.30
32334;DHT22;18810;53.040;8.850;2022-08-16T15:55:45;33.60;74.10
32334;DHT22;18810;53.040;8.850;2022-08-16T15:58:11;34.00;73.40
32334;DHT22;18810;53.040;8.850;2022-08-16T16:00:37;34.80;69.80
32334;DHT22;18810;53.040;8.850;2022-08-16T16:03:10;34.80;70.40
32334;DHT22;18810;53.040;8.850;2022-08-16T16:05:41;35.30;69.60
32334;DHT22;18810;53.040;8.850;2022-08-16T16:08:07;35.50;68.40
32334;DHT22;18810;53.040;8.850;2022-08-16T16:13:03;35.70;65.70
32334;DHT22;18810;53.040;8.850;2022-08-16T16:15:33;35.90;62.90
32334;DHT22;18810;53.040;8.850;2022-08-16T16:17:59;36.10;61.40
32334;DHT22;18810;53.040;8.850;2022-08-16T16:20:27;36.00;60.80
32334;DHT22;18810;53.040;8.850;2022-08-16T16:23:02;35.80;60.20
32334;DHT22;18810;53.040;8.850;2022-08-16T16:25:29;35.40;61.70
32334;DHT22;18810;53.040;8.850;2022-08-16T16:27:56;35.30;62.30
32334;DHT22;18810;53.040;8.850;2022-08-16T16:30:22;35.30;63.40
32334;DHT22;18810;53.040;8.850;2022-08-16T16:32:48;35.30;64.40
32334;DHT22;18810;53.040;8.850;2022-08-16T16:35:14;34.90;63.50
32334;DHT22;18810;53.040;8.850;2022-08-16T16:37:40;34.00;64.40
32334;DHT22;18810;53.040;8.850;2022-08-16T16:40:11;33.90;65.10
32334;DHT22;18810;53.040;8.850;2022-08-16T16:42:37;33.60;67.20
32334;DHT22;18810;53.040;8.850;2022-08-16T16:45:06;33.10;67.90
32334;DHT22;18810;53.040;8.850;2022-08-16T16:47:34;32.80;68.90
32334;DHT22;18810;53.040;8.850;2022-08-16T16:50:00;32.60;69.40
32334;DHT22;18810;53.040;8.850;2022-08-16T16:52:27;32.50;70.40
32334;DHT22;18810;53.040;8.850;2022-08-16T16:54:55;32.30;70.70
32334;DHT22;18810;53.040;8.850;2022-08-16T16:57:20;32.30;71.10
32334;DHT22;18810;53.040;8.850;2022-08-16T17:00:06;32.10;71.50
32334;DHT22;18810;53.040;8.850;2022-08-16T17:02:33;31.90;71.40
32334;DHT22;18810;53.040;8.850;2022-08-16T17:04:59;31.80;72.50
32334;DHT22;18810;53.040;8.850;2022-08-16T17:07:25;31.50;72.90
32334;DHT22;18810;53.040;8.850;2022-08-16T17:09:52;31.40;73.30
32334;DHT22;18810;53.040;8.850;2022-08-16T17:12:18;31.30;73.80
32334;DHT22;18810;53.040;8.850;2022-08-16T17:17:12;31.10;73.50
32334;DHT22;18810;53.040;8.850;2022-08-16T17:19:38;31.00;73.80
32334;DHT22;18810;53.040;8.850;2022-08-16T17:22:04;30.50;74.50
32334;DHT22;18810;53.040;8.850;2022-08-16T17:24:30;30.40;75.10
32334;DHT22;18810;53.040;8.850;2022-08-16T17:26:56;30.20;75.40
32334;DHT22;18810;53.040;8.850;2022-08-16T17:29:23;30.10;76.40
32334;DHT22;18810;53.040;8.850;2022-08-16T17:34:15;30.20;76.00
32334;DHT22;18810;53.040;8.850;2022-08-16T17:39:07;30.10;76.50
32334;DHT22;18810;53.040;8.850;2022-08-16T17:41:34;30.20;77.40
32334;DHT22;18810;53.040;8.850;2022-08-16T17:44:01;30.10;76.90
32334;DHT22;18810;53.040;8.850;2022-08-16T17:46:28;30.00;77.20
32334;DHT22;18810;53.040;8.850;2022-08-16T17:48:53;29.90;77.20
32334;DHT22;18810;53.040;8.850;2022-08-16T17:53:46;29.70;77.30
32334;DHT22;18810;53.040;8.850;2022-08-16T17:56:12;29.70;77.50
32334;DHT22;18810;53.040;8.850;2022-08-16T17:58:38;29.60;77.50
32334;DHT22;18810;53.040;8.850;2022-08-16T18:03:34;29.40;77.20
32334;DHT22;18810;53.040;8.850;2022-08-16T18:06:03;29.40;77.50
32334;DHT22;18810;53.040;8.850;2022-08-16T18:15:49;29.70;78.50
32334;DHT22;18810;53.040;8.850;2022-08-16T18:18:16;29.70;79.00
32334;DHT22;18810;53.040;8.850;2022-08-16T18:20:46;29.70;79.90
32334;DHT22;18810;53.040;8.850;2022-08-16T18:23:31;29.70;78.50
32334;DHT22;18810;53.040;8.850;2022-08-16T18:25:58;29.70;78.30
32334;DHT22;18810;53.040;8.850;2022-08-16T18:28:25;29.70;79.70
32334;DHT22;18810;53.040;8.850;2022-08-16T18:30:52;29.60;80.90
32334;DHT22;18810;53.040;8.850;2022-08-16T18:33:20;29.60;81.60
32334;DHT22;18810;53.040;8.850;2022-08-16T18:35:46;29.50;81.60
32334;DHT22;18810;53.040;8.850;2022-08-16T18:38:12;29.40;81.00
32334;DHT22;18810;53.040;8.850;2022-08-16T18:40:38;29.20;82.10
32334;DHT22;18810;53.040;8.850;2022-08-16T18:43:07;29.30;82.40
32334;DHT22;18810;53.040;8.850;2022-08-16T18:45:35;29.10;82.90
32334;DHT22;18810;53.040;8.850;2022-08-16T18:50:28;29.10;84.40
32334;DHT22;18810;53.040;8.850;2022-08-16T18:52:56;29.00;85.10
32334;DHT22;18810;53.040;8.850;2022-08-16T18:55:24;29.00;85.30
32334;DHT22;18810;53.040;8.850;2022-08-16T18:57:50;29.00;86.00
32334;DHT22;18810;53.040;8.850;2022-08-16T19:00:18;29.00;87.10
32334;DHT22;18810;53.040;8.850;2022-08-16T19:05:15;28.90;85.20
32334;DHT22;18810;53.040;8.850;2022-08-16T19:07:44;28.90;86.50
32334;DHT22;18810;53.040;8.850;2022-08-16T19:10:10;28.70;86.60
32334;DHT22;18810;53.040;8.850;2022-08-16T19:12:36;28.50;87.00
32334;DHT22;18810;53.040;8.850;2022-08-16T19:15:05;28.50;87.40
32334;DHT22;18810;53.040;8.850;2022-08-16T19:17:35;28.50;88.00
32334;DHT22;18810;53.040;8.850;2022-08-16T19:20:02;28.30;88.00
32334;DHT22;18810;53.040;8.850;2022-08-16T19:22:31;28.10;89.20
32334;DHT22;18810;53.040;8.850;2022-08-16T19:24:58;28.00;89.80
32334;DHT22;18810;53.040;8.850;2022-08-16T19:27:24;28.00;90.30
32334;DHT22;18810;53.040;8.850;2022-08-16T19:29:50;28.00;90.60
32334;DHT22;18810;53.040;8.850;2022-08-16T19:32:27;28.10;91.00
32334;DHT22;18810;53.040;8.850;2022-08-16T19:34:58;28.00;91.20
32334;DHT22;18810;53.040;8.850;2022-08-16T19:37:24;28.00;91.60
32334;DHT22;18810;53.040;8.850;2022-08-16T19:39:50;28.00;92.00
32334;DHT22;18810;53.040;8.850;2022-08-16T19:42:18;27.60;92.20
32334;DHT22;18810;53.040;8.850;2022-08-16T19:44:46;27.70;92.40
32334;DHT22;18810;53.040;8.850;2022-08-16T19:47:12;27.60;92.80
32334;DHT22;18810;53.040;8.850;2022-08-16T19:49:38;27.50;93.00
32334;DHT22;18810;53.040;8.850;2022-08-16T19:52:17;27.40;93.70
32334;DHT22;18810;53.040;8.850;2022-08-16T19:54:45;26.90;94.40
32334;DHT22;18810;53.040;8.850;2022-08-16T19:57:11;26.90;94.70
32334;DHT22;18810;53.040;8.850;2022-08-16T19:59:37;26.80;95.20
32334;DHT22;18810;53.040;8.850;2022-08-16T20:02:06;26.40;95.60
32334;DHT22;18810;53.040;8.850;2022-08-16T20:04:33;26.60;95.90
32334;DHT22;18810;53.040;8.850;2022-08-16T20:06:59;26.60;96.20
32334;DHT22;18810;53.040;8.850;2022-08-16T20:09:26;26.50;96.60
32334;DHT22;18810;53.040;8.850;2022-08-16T20:11:53;26.60;96.80
32334;DHT22;18810;53.040;8.850;2022-08-16T20:14:20;26.50;97.00
32334;DHT22;18810;53.040;8.850;2022-08-16T20:16:45;26.50;97.10
32334;DHT22;18810;53.040;8.850;2022-08-16T20:19:12;26.50;97.30
32334;DHT22;18810;53.040;8.850;2022-08-16T20:21:38;26.50;97.50
32334;DHT22;18810;53.040;8.850;2022-08-16T20:24:04;26.50;97.70
32334;DHT22;18810;53.040;8.850;2022-08-16T20:26:29;26.40;98.10
32334;DHT22;18810;53.040;8.850;2022-08-16T20:29:04;26.30;98.30
32334;DHT22;18810;53.040;8.850;2022-08-16T20:31:30;26.40;98.50
32334;DHT22;18810;53.040;8.850;2022-08-16T20:33:55;26.30;98.80
32334;DHT22;18810;53.040;8.850;2022-08-16T20:38:48;26.00;98.80
32334;DHT22;18810;53.040;8.850;2022-08-16T20:41:15;26.00;99.50
32334;DHT22;18810;53.040;8.850;2022-08-16T20:43:41;25.90;99.70
32334;DHT22;18810;53.040;8.850;2022-08-16T20:46:07;25.90;99.80
32334;DHT22;18810;53.040;8.850;2022-08-16T20:48:32;26.00;99.90
32334;DHT22;18810;53.040;8.850;2022-08-16T20:50:58;25.90;99.90
32334;DHT22;18810;53.040;8.850;2022-08-16T20:53:24;25.80;99.90
32334;DHT22;18810;53.040;8.850;2022-08-16T20:55:49;25.70;99.90
32334;DHT22;18810;53.040;8.850;2022-08-16T20:58:15;25.60;99.90
32334;DHT22;18810;53.040;8.850;2022-08-16T21:00:41;25.50;99.90
32334;DHT22;18810;53.040;8.850;2022-08-16T21:05:33;25.50;99.90
32334;DHT22;18810;53.040;8.850;2022-08-16T21:07:59;25.30;99.90
32334;DHT22;18810;53.040;8.850;2022-08-16T21:10:25;25.30;99.90
32334;DHT22;18810;53.040;8.850;2022-08-16T21:12:57;25.40;99.90
32334;DHT22;18810;53.040;8.850;2022-08-16T21:15:25;25.20;99.90
32334;DHT22;18810;53.040;8.850;2022-08-16T21:17:50;25.20;99.90
32334;DHT22;18810;53.040;8.850;2022-08-16T21:20:17;25.20;99.90
32334;DHT22;18810;53.040;8.850;2022-08-16T21:22:54;25.10;99.90
32334;DHT22;18810;53.040;8.850;2022-08-16T21:25:21;25.00;99.90
32334;DHT22;18810;53.040;8.850;2022-08-16T21:27:48;24.90;99.90
32334;DHT22;18810;53.040;8.850;2022-08-16T21:30:14;24.80;99.90
32334;DHT22;18810;53.040;8.850;2022-08-16T21:32:40;24.90;99.90
32334;DHT22;18810;53.040;8.850;2022-08-16T21:35:08;24.90;99.90
32334;DHT22;18810;53.040;8.850;2022-08-16T21:37:34;24.80;99.90